»·PEaware :: N6065L KBFL-KLGB

N6065L :: KBFL-KLGB

FLIGHT INFORMATION

Flight Status: Arrived
Operator: Privately registered:
United States
More flights under this callsign
Pilot: Kyle A. (14988)
Aircraft: Unknown
(T210)
More flights by this aircraft type
Origin: KBFL Meadows
United States
Destination: KLGB Long Beach
United States
More flights between these airports :: More routes between these airports
Route: +MARIC4 LHS V459 SLI
File this flight plan on PilotEdge
Remarks:
Altitude:
(Current/Filed)
9,000ft
Speed:
(Current/Filed)
140kts
Departed: 16-Dec-17 08:50 PM
Arrived: 16-Dec-17 09:47 PM
Distance/Time
Traveled:
107nm/0:57
Distance/Time
To Go:
Arrived

Flight Plot

Page will automatically refresh every two minutes.

Flight plan parsing failed; only flown route is shown


Map Options




Map Legend


Flown Route
Filed Route
Departure Airport
Arrival Airport
Navaid (VOR, NDB)
Fix

Horizontal Profiles

Position Reports

Time Latitude Longitude Heading Altitude Ground
Speed
16-Dec-17 20:46 35.429368 -119.046104 225 497ft 0kts
16-Dec-17 20:47 35.429368 -119.046104 225 497ft 0kts
16-Dec-17 20:48 35.429368 -119.046104 225 497ft 0kts
16-Dec-17 20:49 35.429368 -119.046104 225 497ft 0kts
16-Dec-17 20:50 35.429368 -119.046104 225 497ft 0kts
16-Dec-17 20:51 35.429368 -119.046104 225 497ft 0kts
16-Dec-17 20:52 35.427949 -119.046732 136 497ft 6kts
16-Dec-17 20:53 35.426687 -119.045247 134 497ft 12kts
16-Dec-17 20:54 35.425745 -119.044712 222 497ft 0kts
16-Dec-17 20:55 35.425745 -119.044712 222 497ft 0kts
16-Dec-17 20:56 35.430689 -119.052312 316 509ft 102kts
16-Dec-17 20:57 35.438267 -119.083711 251 1433ft 108kts
16-Dec-17 20:58 35.429798 -119.115937 248 2370ft 111kts
16-Dec-17 20:59 35.411797 -119.140540 159 3408ft 105kts
16-Dec-17 21:00 35.387927 -119.122187 146 4428ft 105kts
16-Dec-17 21:01 35.363747 -119.103215 146 5422ft 108kts
16-Dec-17 21:02 35.360477 -119.100657 146 5552ft 108kts
16-Dec-17 21:03 35.352740 -119.094567 145 5860ft 109kts
16-Dec-17 21:04 35.327037 -119.074491 146 6877ft 110kts
16-Dec-17 21:05 35.301122 -119.054335 146 7888ft 111kts
16-Dec-17 21:06 35.275530 -119.034704 137 8944ft 105kts
16-Dec-17 21:07 35.245212 -119.010789 139 9005ft 152kts
16-Dec-17 21:08 35.207529 -118.981447 139 9005ft 166kts
16-Dec-17 21:09 35.167650 -118.950447 140 9006ft 175kts
16-Dec-17 21:10 35.125792 -118.918016 141 9005ft 180kts
16-Dec-17 21:11 35.088874 -118.889411 141 9005ft 180kts
16-Dec-17 21:12 35.046531 -118.856638 141 9005ft 180kts
16-Dec-17 21:13 35.004270 -118.823957 141 9005ft 180kts
16-Dec-17 21:14 34.961805 -118.790871 147 8981ft 178kts
16-Dec-17 21:15 34.921297 -118.759847 147 9003ft 169kts
16-Dec-17 21:16 34.882789 -118.730222 147 9003ft 168kts
16-Dec-17 21:17 34.844687 -118.700903 147 9003ft 167kts
16-Dec-17 21:18 34.805313 -118.670634 147 9003ft 167kts
16-Dec-17 21:19 34.764468 -118.639288 146 8950ft 180kts
16-Dec-17 21:20 34.721663 -118.606503 144 8974ft 183kts
16-Dec-17 21:21 34.680557 -118.575361 154 8974ft 175kts
16-Dec-17 21:22 34.637655 -118.550174 154 8976ft 170kts
16-Dec-17 21:23 34.595400 -118.525423 154 8976ft 168kts
16-Dec-17 21:24 34.553308 -118.500773 154 8976ft 168kts
16-Dec-17 21:25 34.511411 -118.476260 154 8976ft 168kts
16-Dec-17 21:26 34.470133 -118.452137 154 8976ft 168kts
16-Dec-17 21:27 34.428122 -118.427616 154 8976ft 167kts
16-Dec-17 21:28 34.386479 -118.403332 154 8976ft 168kts
16-Dec-17 21:29 34.344506 -118.378902 154 8980ft 166kts
16-Dec-17 21:30 34.303068 -118.354813 153 8993ft 165kts
16-Dec-17 21:31 34.264718 -118.332534 153 8996ft 168kts
16-Dec-17 21:32 34.222595 -118.308099 153 8996ft 168kts
16-Dec-17 21:33 34.180680 -118.283933 150 8998ft 168kts
16-Dec-17 21:34 34.138406 -118.259300 149 8997ft 172kts
16-Dec-17 21:35 34.094203 -118.233732 150 8998ft 178kts
16-Dec-17 21:36 34.049428 -118.207863 150 8998ft 179kts
16-Dec-17 21:37 34.004549 -118.181956 150 8998ft 179kts
16-Dec-17 21:38 33.956582 -118.169385 189 8613ft 201kts
16-Dec-17 21:39 33.907290 -118.182916 192 7679ft 195kts
16-Dec-17 21:40 33.859464 -118.195422 192 6982ft 167kts
16-Dec-17 21:41 33.816731 -118.206540 192 6802ft 160kts
16-Dec-17 21:42 33.773999 -118.205529 135 5821ft 168kts
16-Dec-17 21:43 33.740966 -118.165976 132 4646ft 164kts
16-Dec-17 21:44 33.711119 -118.126882 132 3440ft 152kts
16-Dec-17 21:45 33.683427 -118.089765 132 2413ft 147kts
16-Dec-17 21:46 33.690032 -118.049496 54 1574ft 131kts
16-Dec-17 21:47 33.716285 -118.048770 332 1574ft 92kts
16-Dec-17 21:48 33.737789 -118.062550 331 1604ft 98kts
16-Dec-17 21:49 33.759331 -118.080910 315 1465ft 100kts
16-Dec-17 21:50 33.777805 -118.103137 316 971ft 81kts
16-Dec-17 21:51 33.793913 -118.122576 315 548ft 91kts
16-Dec-17 21:52 33.809563 -118.141413 315 64ft 71kts
16-Dec-17 21:53 33.814936 -118.149619 268 39ft 4kts
16-Dec-17 21:54 33.812575 -118.152968 198 45ft 11kts
16-Dec-17 21:55 33.812562 -118.153467 357 46ft 0kts
16-Dec-17 21:56 33.812562 -118.153467 357 46ft 0kts

Navigation Log

Ident Type
Flight plan parsing failed, navigation log unavailable